sensor_id;sensor_type;location;lat;lon;timestamp;pressure;altitude;pressure_sealevel;temperature;humidity
32251;BME280;41295;48.518;9.206;2022-12-18T00:00:11;98253.97;;;-8.01;65.70
32251;BME280;41295;48.518;9.206;2022-12-18T00:02:14;98250.88;;;-8.12;64.15
32251;BME280;41295;48.518;9.206;2022-12-18T00:04:20;98255.47;;;-8.04;64.71
32251;BME280;41295;48.518;9.206;2022-12-18T00:06:24;98253.44;;;-8.27;65.00
32251;BME280;41295;48.518;9.206;2022-12-18T00:08:28;98254.03;;;-7.99;64.98
32251;BME280;41295;48.518;9.206;2022-12-18T00:10:31;98251.50;;;-8.16;65.20
32251;BME280;41295;48.518;9.206;2022-12-18T00:12:34;98250.69;;;-8.31;64.49
32251;BME280;41295;48.518;9.206;2022-12-18T00:14:36;98272.19;;;-8.40;65.98
32251;BME280;41295;48.518;9.206;2022-12-18T00:16:43;98270.44;;;-8.41;65.42
32251;BME280;41295;48.518;9.206;2022-12-18T00:18:46;98256.06;;;-8.42;65.35
32251;BME280;41295;48.518;9.206;2022-12-18T00:20:49;98262.09;;;-8.06;65.07
32251;BME280;41295;48.518;9.206;2022-12-18T00:22:52;98254.03;;;-8.33;65.09
32251;BME280;41295;48.518;9.206;2022-12-18T00:24:56;98255.72;;;-8.48;65.30
32251;BME280;41295;48.518;9.206;2022-12-18T00:26:58;98246.25;;;-8.52;66.62
32251;BME280;41295;48.518;9.206;2022-12-18T00:29:03;98252.16;;;-8.52;67.04
32251;BME280;41295;48.518;9.206;2022-12-18T00:31:08;98253.38;;;-8.45;67.05
32251;BME280;41295;48.518;9.206;2022-12-18T00:33:11;98247.50;;;-8.44;66.56
32251;BME280;41295;48.518;9.206;2022-12-18T00:35:14;98245.28;;;-8.38;66.20
32251;BME280;41295;48.518;9.206;2022-12-18T00:37:16;98255.53;;;-8.36;65.06
32251;BME280;41295;48.518;9.206;2022-12-18T00:39:21;98256.75;;;-8.61;63.47
32251;BME280;41295;48.518;9.206;2022-12-18T00:41:25;98261.97;;;-8.58;63.72
32251;BME280;41295;48.518;9.206;2022-12-18T00:43:46;98272.97;;;-8.58;63.82
32251;BME280;41295;48.518;9.206;2022-12-18T00:45:48;98273.69;;;-8.43;63.02
32251;BME280;41295;48.518;9.206;2022-12-18T00:47:51;98274.47;;;-8.45;63.93
32251;BME280;41295;48.518;9.206;2022-12-18T00:49:54;98264.34;;;-8.45;63.22
32251;BME280;41295;48.518;9.206;2022-12-18T00:51:56;98259.56;;;-8.55;62.93
32251;BME280;41295;48.518;9.206;2022-12-18T00:53:59;98250.22;;;-8.58;62.08
32251;BME280;41295;48.518;9.206;2022-12-18T00:56:02;98253.66;;;-8.55;62.25
32251;BME280;41295;48.518;9.206;2022-12-18T00:58:06;98260.22;;;-8.59;62.88
32251;BME280;41295;48.518;9.206;2022-12-18T01:00:12;98256.75;;;-8.61;62.55
32251;BME280;41295;48.518;9.206;2022-12-18T01:02:15;98265.19;;;-8.61;62.23
32251;BME280;41295;48.518;9.206;2022-12-18T01:04:17;98264.16;;;-8.64;62.11
32251;BME280;41295;48.518;9.206;2022-12-18T01:06:20;98263.41;;;-8.63;61.25
32251;BME280;41295;48.518;9.206;2022-12-18T01:08:23;98258.88;;;-8.52;60.70
32251;BME280;41295;48.518;9.206;2022-12-18T01:10:26;98258.88;;;-8.69;61.22
32251;BME280;41295;48.518;9.206;2022-12-18T01:12:28;98269.34;;;-8.93;61.49
32251;BME280;41295;48.518;9.206;2022-12-18T01:14:32;98273.88;;;-8.87;61.99
32251;BME280;41295;48.518;9.206;2022-12-18T01:16:35;98278.34;;;-8.83;62.30
32251;BME280;41295;48.518;9.206;2022-12-18T01:18:38;98276.84;;;-8.79;61.48
32251;BME280;41295;48.518;9.206;2022-12-18T01:20:41;98274.41;;;-8.78;61.50
32251;BME280;41295;48.518;9.206;2022-12-18T01:22:44;98273.88;;;-8.87;61.66
32251;BME280;41295;48.518;9.206;2022-12-18T01:24:46;98270.25;;;-8.93;61.50
32251;BME280;41295;48.518;9.206;2022-12-18T01:26:49;98272.59;;;-8.96;61.52
32251;BME280;41295;48.518;9.206;2022-12-18T01:28:53;98273.56;;;-8.94;61.77
32251;BME280;41295;48.518;9.206;2022-12-18T01:30:57;98276.78;;;-8.96;61.29
32251;BME280;41295;48.518;9.206;2022-12-18T01:33:10;98278.63;;;-8.94;61.61
32251;BME280;41295;48.518;9.206;2022-12-18T01:35:13;98279.13;;;-8.99;60.87
32251;BME280;41295;48.518;9.206;2022-12-18T01:37:16;98276.53;;;-9.01;61.19
32251;BME280;41295;48.518;9.206;2022-12-18T01:39:19;98272.31;;;-9.00;61.37
32251;BME280;41295;48.518;9.206;2022-12-18T01:41:23;98269.72;;;-9.02;60.68
32251;BME280;41295;48.518;9.206;2022-12-18T01:43:44;98272.31;;;-9.00;61.09
32251;BME280;41295;48.518;9.206;2022-12-18T01:45:47;98284.03;;;-9.02;61.01
32251;BME280;41295;48.518;9.206;2022-12-18T01:47:52;98281.41;;;-9.04;60.31
32251;BME280;41295;48.518;9.206;2022-12-18T01:49:57;98274.69;;;-9.03;60.57
32251;BME280;41295;48.518;9.206;2022-12-18T01:52:01;98272.06;;;-9.05;60.50
32251;BME280;41295;48.518;9.206;2022-12-18T01:54:03;98270.50;;;-9.03;61.13
32251;BME280;41295;48.518;9.206;2022-12-18T01:56:06;98271.31;;;-9.04;61.03
32251;BME280;41295;48.518;9.206;2022-12-18T01:58:09;98276.25;;;-9.06;61.03
32251;BME280;41295;48.518;9.206;2022-12-18T02:00:15;98276.38;;;-9.04;61.30
32251;BME280;41295;48.518;9.206;2022-12-18T02:02:18;98269.91;;;-8.99;61.07
32251;BME280;41295;48.518;9.206;2022-12-18T02:04:25;98265.00;;;-8.96;61.26
32251;BME280;41295;48.518;9.206;2022-12-18T02:06:32;98259.34;;;-8.91;60.71
32251;BME280;41295;48.518;9.206;2022-12-18T02:08:43;98252.78;;;-8.88;60.65
32251;BME280;41295;48.518;9.206;2022-12-18T02:11:03;98257.22;;;-8.84;61.11
32251;BME280;41295;48.518;9.206;2022-12-18T02:13:12;98254.00;;;-8.81;61.20
32251;BME280;41295;48.518;9.206;2022-12-18T02:15:20;98265.47;;;-9.03;61.28
32251;BME280;41295;48.518;9.206;2022-12-18T02:17:32;98281.75;;;-8.98;62.55
32251;BME280;41295;48.518;9.206;2022-12-18T02:19:46;98270.00;;;-8.97;61.85
32251;BME280;41295;48.518;9.206;2022-12-18T02:21:56;98266.13;;;-8.90;62.82
32251;BME280;41295;48.518;9.206;2022-12-18T02:24:11;98261.16;;;-8.89;62.61
32251;BME280;41295;48.518;9.206;2022-12-18T02:26:22;98253.59;;;-8.89;62.33
32251;BME280;41295;48.518;9.206;2022-12-18T02:28:34;98267.34;;;-8.84;62.69
32251;BME280;41295;48.518;9.206;2022-12-18T02:30:39;98276.13;;;-8.77;62.85
32251;BME280;41295;48.518;9.206;2022-12-18T02:32:46;98281.03;;;-8.65;62.96
32251;BME280;41295;48.518;9.206;2022-12-18T02:34:52;98276.81;;;-8.64;62.85
32251;BME280;41295;48.518;9.206;2022-12-18T02:36:58;98283.78;;;-8.60;62.66
32251;BME280;41295;48.518;9.206;2022-12-18T02:39:05;98280.31;;;-8.62;61.90
32251;BME280;41295;48.518;9.206;2022-12-18T02:41:10;98281.19;;;-8.62;61.95
32251;BME280;41295;48.518;9.206;2022-12-18T02:43:15;98281.19;;;-8.62;61.80
32251;BME280;41295;48.518;9.206;2022-12-18T02:45:18;98290.25;;;-8.65;61.39
32251;BME280;41295;48.518;9.206;2022-12-18T02:47:23;98287.72;;;-8.65;61.74
32251;BME280;41295;48.518;9.206;2022-12-18T02:49:32;98290.34;;;-8.64;61.67
32251;BME280;41295;48.518;9.206;2022-12-18T02:51:39;98297.25;;;-8.61;61.48
32251;BME280;41295;48.518;9.206;2022-12-18T02:53:51;98296.97;;;-8.66;61.51
32251;BME280;41295;48.518;9.206;2022-12-18T02:56:03;98304.31;;;-8.71;62.26
32251;BME280;41295;48.518;9.206;2022-12-18T02:58:13;98302.81;;;-8.67;62.31
32251;BME280;41295;48.518;9.206;2022-12-18T03:00:21;98308.19;;;-8.61;62.62
32251;BME280;41295;48.518;9.206;2022-12-18T03:02:29;98314.13;;;-8.60;62.39
32251;BME280;41295;48.518;9.206;2022-12-18T03:04:40;98312.41;;;-8.61;62.56
32251;BME280;41295;48.518;9.206;2022-12-18T03:06:49;98300.13;;;-8.53;61.82
32251;BME280;41295;48.518;9.206;2022-12-18T03:08:56;98299.13;;;-8.57;62.16
32251;BME280;41295;48.518;9.206;2022-12-18T03:11:03;98285.72;;;-8.56;62.76
32251;BME280;41295;48.518;9.206;2022-12-18T03:13:09;98284.81;;;-8.57;62.27
32251;BME280;41295;48.518;9.206;2022-12-18T03:15:16;98275.00;;;-8.50;63.00
32251;BME280;41295;48.518;9.206;2022-12-18T03:17:23;98274.16;;;-8.51;62.39
32251;BME280;41295;48.518;9.206;2022-12-18T03:19:28;98282.06;;;-8.61;62.43
32251;BME280;41295;48.518;9.206;2022-12-18T03:21:37;98280.56;;;-8.58;63.08
32251;BME280;41295;48.518;9.206;2022-12-18T03:23:45;98288.94;;;-8.59;62.97
32251;BME280;41295;48.518;9.206;2022-12-18T03:25:52;98284.59;;;-8.61;63.90
32251;BME280;41295;48.518;9.206;2022-12-18T03:27:59;98292.88;;;-8.64;64.00
32251;BME280;41295;48.518;9.206;2022-12-18T03:30:05;98298.16;;;-8.59;64.60
32251;BME280;41295;48.518;9.206;2022-12-18T03:32:11;98298.41;;;-8.54;64.93
32251;BME280;41295;48.518;9.206;2022-12-18T03:34:19;98297.25;;;-8.61;64.08
32251;BME280;41295;48.518;9.206;2022-12-18T03:36:25;98290.75;;;-8.39;63.90
32251;BME280;41295;48.518;9.206;2022-12-18T03:38:28;98293.59;;;-8.50;64.53
32251;BME280;41295;48.518;9.206;2022-12-18T03:40:35;98296.38;;;-8.45;65.47
32251;BME280;41295;48.518;9.206;2022-12-18T03:42:46;98293.38;;;-8.38;65.73
32251;BME280;41295;48.518;9.206;2022-12-18T03:44:55;98307.13;;;-8.49;66.06
32251;BME280;41295;48.518;9.206;2022-12-18T03:47:05;98288.78;;;-8.45;65.99
32251;BME280;41295;48.518;9.206;2022-12-18T03:49:12;98294.19;;;-8.54;65.71
32251;BME280;41295;48.518;9.206;2022-12-18T03:51:23;98296.28;;;-8.47;66.37
32251;BME280;41295;48.518;9.206;2022-12-18T03:53:33;98292.63;;;-8.52;65.62
32251;BME280;41295;48.518;9.206;2022-12-18T03:55:38;98302.97;;;-8.64;66.45
32251;BME280;41295;48.518;9.206;2022-12-18T03:57:42;98303.66;;;-8.66;66.85
32251;BME280;41295;48.518;9.206;2022-12-18T03:59:49;98311.44;;;-8.63;66.67
32251;BME280;41295;48.518;9.206;2022-12-18T04:01:53;98304.03;;;-8.75;66.65
32251;BME280;41295;48.518;9.206;2022-12-18T04:03:59;98301.63;;;-8.74;66.61
32251;BME280;41295;48.518;9.206;2022-12-18T04:06:03;98302.47;;;-8.73;66.69
32251;BME280;41295;48.518;9.206;2022-12-18T04:08:08;98296.38;;;-8.77;67.70
32251;BME280;41295;48.518;9.206;2022-12-18T04:10:11;98294.13;;;-8.72;66.98
32251;BME280;41295;48.518;9.206;2022-12-18T04:12:14;98303.88;;;-8.63;66.63
32251;BME280;41295;48.518;9.206;2022-12-18T04:14:17;98295.16;;;-8.68;66.21
32251;BME280;41295;48.518;9.206;2022-12-18T04:16:20;98289.53;;;-8.63;66.01
32251;BME280;41295;48.518;9.206;2022-12-18T04:18:22;98297.59;;;-8.70;65.75
32251;BME280;41295;48.518;9.206;2022-12-18T04:20:25;98313.63;;;-8.70;65.75
32251;BME280;41295;48.518;9.206;2022-12-18T04:22:28;98314.44;;;-8.71;66.46
32251;BME280;41295;48.518;9.206;2022-12-18T04:24:32;98316.00;;;-8.73;66.47
32251;BME280;41295;48.518;9.206;2022-12-18T04:26:34;98308.31;;;-8.74;66.38
32251;BME280;41295;48.518;9.206;2022-12-18T04:28:37;98300.81;;;-8.73;66.55
32251;BME280;41295;48.518;9.206;2022-12-18T04:30:39;98302.47;;;-8.73;66.86
32251;BME280;41295;48.518;9.206;2022-12-18T04:32:42;98301.69;;;-8.72;66.35
32251;BME280;41295;48.518;9.206;2022-12-18T04:34:52;98297.41;;;-8.73;65.66
32251;BME280;41295;48.518;9.206;2022-12-18T04:36:55;98293.38;;;-8.70;65.73
32251;BME280;41295;48.518;9.206;2022-12-18T04:38:57;98309.44;;;-8.69;65.60
32251;BME280;41295;48.518;9.206;2022-12-18T04:41:02;98312.31;;;-8.63;65.45
32251;BME280;41295;48.518;9.206;2022-12-18T04:43:04;98317.13;;;-8.67;64.35
32251;BME280;41295;48.518;9.206;2022-12-18T04:45:08;98321.22;;;-8.70;64.32
32251;BME280;41295;48.518;9.206;2022-12-18T04:47:11;98316.88;;;-8.72;65.03
32251;BME280;41295;48.518;9.206;2022-12-18T04:49:16;98319.47;;;-8.86;64.30
32251;BME280;41295;48.518;9.206;2022-12-18T04:51:19;98325.66;;;-8.81;65.06
32251;BME280;41295;48.518;9.206;2022-12-18T04:53:27;98302.59;;;-8.87;65.61
32251;BME280;41295;48.518;9.206;2022-12-18T04:55:29;98301.88;;;-8.84;65.71
32251;BME280;41295;48.518;9.206;2022-12-18T04:57:33;98299.16;;;-8.87;65.11
32251;BME280;41295;48.518;9.206;2022-12-18T04:59:36;98299.88;;;-8.90;64.99
32251;BME280;41295;48.518;9.206;2022-12-18T05:01:39;98290.63;;;-8.89;65.27
32251;BME280;41295;48.518;9.206;2022-12-18T05:03:42;98283.03;;;-8.89;64.37
32251;BME280;41295;48.518;9.206;2022-12-18T05:05:49;98268.50;;;-8.94;64.05
32251;BME280;41295;48.518;9.206;2022-12-18T05:07:52;98271.81;;;-8.95;63.74
32251;BME280;41295;48.518;9.206;2022-12-18T05:09:57;98285.06;;;-8.99;63.72
32251;BME280;41295;48.518;9.206;2022-12-18T05:12:00;98294.16;;;-9.02;63.49
32251;BME280;41295;48.518;9.206;2022-12-18T05:14:06;98283.16;;;-9.03;64.03
32251;BME280;41295;48.518;9.206;2022-12-18T05:16:09;98275.72;;;-9.00;63.89
32251;BME280;41295;48.518;9.206;2022-12-18T05:18:12;98277.28;;;-9.02;64.00
32251;BME280;41295;48.518;9.206;2022-12-18T05:20:15;98289.44;;;-9.11;63.63
32251;BME280;41295;48.518;9.206;2022-12-18T05:22:19;98284.38;;;-9.11;64.33
32251;BME280;41295;48.518;9.206;2022-12-18T05:24:22;98283.75;;;-9.07;64.22
32251;BME280;41295;48.518;9.206;2022-12-18T05:26:24;98287.75;;;-9.11;64.13
32251;BME280;41295;48.518;9.206;2022-12-18T05:28:29;98287.97;;;-9.08;64.05
32251;BME280;41295;48.518;9.206;2022-12-18T05:30:33;98293.09;;;-9.06;63.76
32251;BME280;41295;48.518;9.206;2022-12-18T05:32:36;98291.41;;;-9.06;63.31
32251;BME280;41295;48.518;9.206;2022-12-18T05:34:39;98306.59;;;-9.06;63.46
32251;BME280;41295;48.518;9.206;2022-12-18T05:36:42;98300.94;;;-9.01;63.18
32251;BME280;41295;48.518;9.206;2022-12-18T05:38:45;98284.03;;;-9.02;62.89
32251;BME280;41295;48.518;9.206;2022-12-18T05:40:48;98292.28;;;-9.05;62.60
32251;BME280;41295;48.518;9.206;2022-12-18T05:42:50;98305.38;;;-9.12;63.20
32251;BME280;41295;48.518;9.206;2022-12-18T05:44:53;98307.91;;;-9.27;62.22
32251;BME280;41295;48.518;9.206;2022-12-18T05:46:57;98303.69;;;-9.27;63.77
32251;BME280;41295;48.518;9.206;2022-12-18T05:49:00;98297.72;;;-9.29;63.57
32251;BME280;41295;48.518;9.206;2022-12-18T05:51:04;98303.09;;;-9.23;62.98
32251;BME280;41295;48.518;9.206;2022-12-18T05:53:08;98294.13;;;-9.18;62.23
32251;BME280;41295;48.518;9.206;2022-12-18T05:55:11;98302.56;;;-9.32;62.61
32251;BME280;41295;48.518;9.206;2022-12-18T05:57:14;98307.28;;;-9.38;62.25
32251;BME280;41295;48.518;9.206;2022-12-18T05:59:17;98306.31;;;-9.40;61.94
32251;BME280;41295;48.518;9.206;2022-12-18T06:01:22;98304.91;;;-9.50;61.94
32251;BME280;41295;48.518;9.206;2022-12-18T06:03:26;98296.03;;;-9.44;61.66
32251;BME280;41295;48.518;9.206;2022-12-18T06:05:35;98291.84;;;-9.43;61.50
32251;BME280;41295;48.518;9.206;2022-12-18T06:07:38;98291.59;;;-9.48;60.37
32251;BME280;41295;48.518;9.206;2022-12-18T06:09:41;98296.03;;;-9.44;59.54
32251;BME280;41295;48.518;9.206;2022-12-18T06:11:44;98303.97;;;-9.52;59.67
32251;BME280;41295;48.518;9.206;2022-12-18T06:13:49;98293.47;;;-9.59;59.33
32251;BME280;41295;48.518;9.206;2022-12-18T06:16:01;98288.44;;;-9.59;60.10
32251;BME280;41295;48.518;9.206;2022-12-18T06:18:04;98284.75;;;-9.64;60.12
32251;BME280;41295;48.518;9.206;2022-12-18T06:20:09;98292.25;;;-9.66;60.48
32251;BME280;41295;48.518;9.206;2022-12-18T06:22:12;98296.63;;;-9.63;60.63
32251;BME280;41295;48.518;9.206;2022-12-18T06:24:15;98304.63;;;-9.55;60.68
32251;BME280;41295;48.518;9.206;2022-12-18T06:26:17;98308.38;;;-9.63;60.31
32251;BME280;41295;48.518;9.206;2022-12-18T06:28:28;98308.78;;;-9.71;60.92
32251;BME280;41295;48.518;9.206;2022-12-18T06:30:30;98305.56;;;-9.68;60.83
32251;BME280;41295;48.518;9.206;2022-12-18T06:32:33;98304.09;;;-9.64;61.23
32251;BME280;41295;48.518;9.206;2022-12-18T06:34:37;98315.63;;;-9.55;60.61
32251;BME280;41295;48.518;9.206;2022-12-18T06:36:41;98320.03;;;-9.66;60.67
32251;BME280;41295;48.518;9.206;2022-12-18T06:38:44;98321.59;;;-9.68;60.27
32251;BME280;41295;48.518;9.206;2022-12-18T06:40:46;98334.06;;;-9.84;59.08
32251;BME280;41295;48.518;9.206;2022-12-18T06:42:49;98342.59;;;-9.82;58.74
32251;BME280;41295;48.518;9.206;2022-12-18T06:44:51;98337.56;;;-9.82;59.11
32251;BME280;41295;48.518;9.206;2022-12-18T06:46:55;98338.28;;;-9.70;58.69
32251;BME280;41295;48.518;9.206;2022-12-18T06:48:57;98343.22;;;-9.86;58.58
32251;BME280;41295;48.518;9.206;2022-12-18T06:51:01;98352.75;;;-9.96;58.82
32251;BME280;41295;48.518;9.206;2022-12-18T06:53:05;98347.97;;;-9.91;58.90
32251;BME280;41295;48.518;9.206;2022-12-18T06:55:08;98350.13;;;-9.97;59.20
32251;BME280;41295;48.518;9.206;2022-12-18T06:57:10;98356.66;;;-10.01;59.92
32251;BME280;41295;48.518;9.206;2022-12-18T06:59:13;98356.66;;;-10.01;60.03
32251;BME280;41295;48.518;9.206;2022-12-18T07:01:17;98355.78;;;-10.02;60.03
32251;BME280;41295;48.518;9.206;2022-12-18T07:03:19;98358.09;;;-10.05;59.24
32251;BME280;41295;48.518;9.206;2022-12-18T07:05:24;98359.84;;;-10.04;59.90
32251;BME280;41295;48.518;9.206;2022-12-18T07:07:27;98363.59;;;-9.97;59.19
32251;BME280;41295;48.518;9.206;2022-12-18T07:09:31;98351.19;;;-9.94;59.06
32251;BME280;41295;48.518;9.206;2022-12-18T07:11:33;98356.25;;;-9.94;59.21
32251;BME280;41295;48.518;9.206;2022-12-18T07:13:36;98356.91;;;-9.96;58.95
32251;BME280;41295;48.518;9.206;2022-12-18T07:15:39;98356.75;;;-9.99;59.24
32251;BME280;41295;48.518;9.206;2022-12-18T07:17:43;98356.75;;;-9.99;59.46
32251;BME280;41295;48.518;9.206;2022-12-18T07:19:45;98361.69;;;-10.01;59.04
32251;BME280;41295;48.518;9.206;2022-12-18T07:21:49;98366.75;;;-10.01;59.50
32251;BME280;41295;48.518;9.206;2022-12-18T07:23:52;98365.94;;;-10.00;59.37
32251;BME280;41295;48.518;9.206;2022-12-18T07:26:00;98381.00;;;-10.02;59.49
32251;BME280;41295;48.518;9.206;2022-12-18T07:28:03;98363.44;;;-10.00;59.88
32251;BME280;41295;48.518;9.206;2022-12-18T07:30:08;98367.00;;;-9.96;60.05
32251;BME280;41295;48.518;9.206;2022-12-18T07:32:11;98370.69;;;-9.91;60.41
32251;BME280;41295;48.518;9.206;2022-12-18T07:34:14;98368.16;;;-9.91;60.42
32251;BME280;41295;48.518;9.206;2022-12-18T07:36:17;98376.22;;;-9.83;60.43
32251;BME280;41295;48.518;9.206;2022-12-18T07:38:21;98377.28;;;-9.80;59.64
32251;BME280;41295;48.518;9.206;2022-12-18T07:40:24;98374.16;;;-9.75;60.15
32251;BME280;41295;48.518;9.206;2022-12-18T07:42:28;98375.13;;;-9.73;59.91
32251;BME280;41295;48.518;9.206;2022-12-18T07:44:33;98369.13;;;-9.75;60.03
32251;BME280;41295;48.518;9.206;2022-12-18T07:46:36;98365.09;;;-9.72;60.13
32251;BME280;41295;48.518;9.206;2022-12-18T07:48:38;98369.75;;;-9.64;60.08
32251;BME280;41295;48.518;9.206;2022-12-18T07:50:41;98368.00;;;-9.66;59.69
32251;BME280;41295;48.518;9.206;2022-12-18T07:52:44;98366.28;;;-9.67;60.01
32251;BME280;41295;48.518;9.206;2022-12-18T07:54:46;98369.75;;;-9.64;60.44
32251;BME280;41295;48.518;9.206;2022-12-18T07:56:51;98364.09;;;-9.60;60.14
32251;BME280;41295;48.518;9.206;2022-12-18T07:58:55;98370.13;;;-9.58;60.43
32251;BME280;41295;48.518;9.206;2022-12-18T08:01:02;98371.69;;;-9.60;60.45
32251;BME280;41295;48.518;9.206;2022-12-18T08:03:06;98363.22;;;-9.61;60.98
32251;BME280;41295;48.518;9.206;2022-12-18T08:05:09;98366.81;;;-9.57;61.37
32251;BME280;41295;48.518;9.206;2022-12-18T08:07:12;98366.03;;;-9.56;61.50
32251;BME280;41295;48.518;9.206;2022-12-18T08:09:15;98368.75;;;-9.53;61.40
32251;BME280;41295;48.518;9.206;2022-12-18T08:11:18;98374.16;;;-9.47;61.63
32251;BME280;41295;48.518;9.206;2022-12-18T08:13:21;98378.25;;;-9.49;61.48
32251;BME280;41295;48.518;9.206;2022-12-18T08:15:25;98383.41;;;-9.47;61.63
32251;BME280;41295;48.518;9.206;2022-12-18T08:17:28;98377.56;;;-9.46;61.67
32251;BME280;41295;48.518;9.206;2022-12-18T08:19:31;98376.78;;;-9.45;61.76
32251;BME280;41295;48.518;9.206;2022-12-18T08:21:33;98380.06;;;-9.46;61.85
32251;BME280;41295;48.518;9.206;2022-12-18T08:23:36;98385.03;;;-9.48;61.61
32251;BME280;41295;48.518;9.206;2022-12-18T08:25:43;98379.41;;;-9.44;62.39
32251;BME280;41295;48.518;9.206;2022-12-18T08:27:46;98389.84;;;-9.37;61.95
32251;BME280;41295;48.518;9.206;2022-12-18T08:29:48;98391.72;;;-9.35;61.74
32251;BME280;41295;48.518;9.206;2022-12-18T08:31:52;98385.19;;;-9.31;62.37
32251;BME280;41295;48.518;9.206;2022-12-18T08:33:56;98386.81;;;-9.32;61.85
32251;BME280;41295;48.518;9.206;2022-12-18T08:35:59;98380.97;;;-9.31;62.34
32251;BME280;41295;48.518;9.206;2022-12-18T08:38:02;98382.13;;;-9.25;62.69
32251;BME280;41295;48.518;9.206;2022-12-18T08:40:07;98384.06;;;-9.21;62.36
32251;BME280;41295;48.518;9.206;2022-12-18T08:42:09;98377.53;;;-9.18;62.95
32251;BME280;41295;48.518;9.206;2022-12-18T08:44:30;98379.47;;;-9.13;63.01
32251;BME280;41295;48.518;9.206;2022-12-18T08:46:43;98385.47;;;-9.11;62.88
32251;BME280;41295;48.518;9.206;2022-12-18T08:48:47;98388.44;;;-9.03;62.73
32251;BME280;41295;48.518;9.206;2022-12-18T08:50:54;98387.84;;;-8.99;62.83
32251;BME280;41295;48.518;9.206;2022-12-18T08:52:57;98386.19;;;-8.99;62.98
32251;BME280;41295;48.518;9.206;2022-12-18T08:55:00;98391.50;;;-8.94;64.03
32251;BME280;41295;48.518;9.206;2022-12-18T08:57:03;98393.53;;;-8.88;63.64
32251;BME280;41295;48.518;9.206;2022-12-18T08:59:05;98387.94;;;-8.83;64.24
32251;BME280;41295;48.518;9.206;2022-12-18T09:01:10;98377.03;;;-8.82;64.51
32251;BME280;41295;48.518;9.206;2022-12-18T09:03:16;98373.81;;;-8.79;64.45
32251;BME280;41295;48.518;9.206;2022-12-18T09:05:20;98364.72;;;-8.75;64.84
32251;BME280;41295;48.518;9.206;2022-12-18T09:07:23;98361.50;;;-8.73;64.49
32251;BME280;41295;48.518;9.206;2022-12-18T09:09:25;98361.75;;;-8.68;64.55
32251;BME280;41295;48.518;9.206;2022-12-18T09:11:29;98362.81;;;-8.64;65.01
32251;BME280;41295;48.518;9.206;2022-12-18T09:13:31;98357.16;;;-8.60;65.06
32251;BME280;41295;48.518;9.206;2022-12-18T09:15:34;98355.09;;;-8.51;65.42
32251;BME280;41295;48.518;9.206;2022-12-18T09:17:42;98356.06;;;-8.49;65.26
32251;BME280;41295;48.518;9.206;2022-12-18T09:19:45;98357.19;;;-8.43;65.65
32251;BME280;41295;48.518;9.206;2022-12-18T09:21:49;98356.56;;;-8.39;65.54
32251;BME280;41295;48.518;9.206;2022-12-18T09:23:52;98350.38;;;-8.45;65.22
32251;BME280;41295;48.518;9.206;2022-12-18T09:25:58;98356.56;;;-8.39;65.98
32251;BME280;41295;48.518;9.206;2022-12-18T09:28:01;98350.19;;;-8.33;66.19
32251;BME280;41295;48.518;9.206;2022-12-18T09:30:05;98355.50;;;-8.28;66.08
32251;BME280;41295;48.518;9.206;2022-12-18T09:32:08;98349.91;;;-8.22;65.79
32251;BME280;41295;48.518;9.206;2022-12-18T09:34:10;98348.31;;;-8.20;65.81
32251;BME280;41295;48.518;9.206;2022-12-18T09:36:15;98346.81;;;-8.16;66.33
32251;BME280;41295;48.518;9.206;2022-12-18T09:38:20;98339.41;;;-8.13;66.00
32251;BME280;41295;48.518;9.206;2022-12-18T09:40:26;98332.75;;;-8.11;65.55
32251;BME280;41295;48.518;9.206;2022-12-18T09:42:31;98334.72;;;-8.05;65.95
32251;BME280;41295;48.518;9.206;2022-12-18T09:44:36;98336.56;;;-8.03;66.43
32251;BME280;41295;48.518;9.206;2022-12-18T09:46:49;98334.19;;;-8.00;66.52
32251;BME280;41295;48.518;9.206;2022-12-18T09:48:58;98346.22;;;-7.95;65.90
32251;BME280;41295;48.518;9.206;2022-12-18T09:51:05;98346.31;;;-7.94;66.41
32251;BME280;41295;48.518;9.206;2022-12-18T09:53:15;98349.00;;;-7.91;66.14
32251;BME280;41295;48.518;9.206;2022-12-18T09:55:24;98335.63;;;-7.88;66.41
32251;BME280;41295;48.518;9.206;2022-12-18T09:57:40;98335.72;;;-7.87;66.42
32251;BME280;41295;48.518;9.206;2022-12-18T09:59:48;98338.31;;;-7.85;66.54
32251;BME280;41295;48.518;9.206;2022-12-18T10:01:52;98331.69;;;-7.83;66.56
32251;BME280;41295;48.518;9.206;2022-12-18T10:03:55;98331.16;;;-7.77;66.17
32251;BME280;41295;48.518;9.206;2022-12-18T10:06:03;98331.22;;;-7.76;66.54
32251;BME280;41295;48.518;9.206;2022-12-18T10:08:13;98331.38;;;-7.73;66.11
32251;BME280;41295;48.518;9.206;2022-12-18T10:10:26;98333.97;;;-7.71;66.99
32251;BME280;41295;48.518;9.206;2022-12-18T10:12:30;98336.66;;;-7.68;67.18
32251;BME280;41295;48.518;9.206;2022-12-18T10:14:43;98342.84;;;-7.63;67.02
32251;BME280;41295;48.518;9.206;2022-12-18T10:16:57;98340.72;;;-7.55;66.79
32251;BME280;41295;48.518;9.206;2022-12-18T10:19:16;98343.25;;;-7.55;67.19
32251;BME280;41295;48.518;9.206;2022-12-18T10:21:25;98341.13;;;-7.47;68.05
32251;BME280;41295;48.518;9.206;2022-12-18T10:23:35;98338.66;;;-7.45;67.74
32251;BME280;41295;48.518;9.206;2022-12-18T10:25:53;98342.22;;;-7.42;67.72
32251;BME280;41295;48.518;9.206;2022-12-18T10:28:07;98342.38;;;-7.39;68.05
32251;BME280;41295;48.518;9.206;2022-12-18T10:30:14;98338.47;;;-7.32;67.65
32251;BME280;41295;48.518;9.206;2022-12-18T10:32:19;98334.38;;;-7.30;67.83
32251;BME280;41295;48.518;9.206;2022-12-18T10:34:23;98335.31;;;-7.28;68.16
32251;BME280;41295;48.518;9.206;2022-12-18T10:36:26;98336.19;;;-7.27;67.95
32251;BME280;41295;48.518;9.206;2022-12-18T10:38:30;98336.34;;;-7.24;67.99
32251;BME280;41295;48.518;9.206;2022-12-18T10:40:47;98329.09;;;-7.16;68.16
32251;BME280;41295;48.518;9.206;2022-12-18T10:43:04;98330.06;;;-7.14;68.93
32251;BME280;41295;48.518;9.206;2022-12-18T10:45:09;98334.56;;;-7.08;69.64
32251;BME280;41295;48.518;9.206;2022-12-18T10:47:15;98334.00;;;-7.03;70.49
32251;BME280;41295;48.518;9.206;2022-12-18T10:49:25;98332.72;;;-6.94;71.25
32251;BME280;41295;48.518;9.206;2022-12-18T10:51:31;98332.28;;;-6.85;71.37
32251;BME280;41295;48.518;9.206;2022-12-18T10:53:36;98328.38;;;-6.79;71.92
32251;BME280;41295;48.518;9.206;2022-12-18T10:55:44;98321.34;;;-6.66;71.83
32251;BME280;41295;48.518;9.206;2022-12-18T10:57:48;98315.78;;;-6.59;72.04
32251;BME280;41295;48.518;9.206;2022-12-18T10:59:54;98325.34;;;-6.53;71.62
32251;BME280;41295;48.518;9.206;2022-12-18T11:01:57;98323.03;;;-6.48;72.27